Time;durP1;ratioP1;P1;durP2;ratioP2;P2;SDS_P1;SDS_P2;PMS_P1;PMS_P2;Temp;Humidity;BMP_temperature;BMP_pressure;BME280_temperature;BME280_humidity;BME280_pressure;Samples;Min_cycle;Max_cycle;Signal;HPM_P1;HPM_P2
2021/08/04 00:00:46;;;;;;;2.00;1.90;;;23.40;56.30;;;;;;5031522;28;20243;-45
2021/08/04 00:03:12;;;;;;;2.50;1.80;;;23.50;56.00;;;;;;5030599;28;20220;-48
2021/08/04 00:05:37;;;;;;;1.73;1.63;;;23.50;56.00;;;;;;5026499;28;20953;-46
2021/08/04 00:08:03;;;;;;;2.20;1.80;;;23.50;56.40;;;;;;5030972;28;20239;-46
2021/08/04 00:10:29;;;;;;;4.70;1.73;;;23.40;55.30;;;;;;5028727;28;20189;-46
2021/08/04 00:12:54;;;;;;;2.10;1.90;;;23.30;55.20;;;;;;5029817;28;20444;-46
2021/08/04 00:15:20;;;;;;;1.70;1.60;;;23.30;55.90;;;;;;5024319;28;20323;-49
2021/08/04 00:17:47;;;;;;;3.73;1.73;;;23.20;55.70;;;;;;5026009;28;20355;-47
2021/08/04 00:20:13;;;;;;;2.43;1.97;;;23.20;55.40;;;;;;5029150;28;20704;-46
2021/08/04 00:22:39;;;;;;;2.07;1.87;;;23.20;55.90;;;;;;5029511;28;20488;-46
2021/08/04 00:25:06;;;;;;;5.53;1.73;;;23.20;56.40;;;;;;5029120;28;20564;-46
2021/08/04 00:27:31;;;;;;;4.67;2.10;;;23.20;56.40;;;;;;5025038;28;20267;-46
2021/08/04 00:29:57;;;;;;;2.27;1.83;;;23.30;56.50;;;;;;5030879;28;20486;-46
2021/08/04 00:32:24;;;;;;;1.60;1.50;;;23.40;56.10;;;;;;5029953;28;20185;-45
2021/08/04 00:34:50;;;;;;;2.60;1.57;;;23.40;55.90;;;;;;5030256;28;20193;-46
2021/08/04 00:37:16;;;;;;;1.60;1.50;;;23.40;56.70;;;;;;5029493;28;20450;-46
2021/08/04 00:39:42;;;;;;;5.20;2.10;;;23.50;56.40;;;;;;5036431;28;20547;-46
2021/08/04 00:42:10;;;;;;;1.67;1.57;;;23.50;55.80;;;;;;5029233;28;20438;-45
2021/08/04 00:44:35;;;;;;;1.87;1.77;;;23.60;55.90;;;;;;5029914;28;20657;-46
2021/08/04 00:47:01;;;;;;;2.00;1.83;;;23.60;56.10;;;;;;5021110;28;20443;-48
2021/08/04 00:49:27;;;;;;;1.87;1.60;;;23.60;56.30;;;;;;5029002;28;20193;-46
2021/08/04 00:51:53;;;;;;;5.53;2.10;;;23.60;55.50;;;;;;5029247;28;20185;-48
2021/08/04 00:54:18;;;;;;;1.63;1.53;;;23.60;56.80;;;;;;5030267;28;20189;-47
2021/08/04 00:56:44;;;;;;;3.37;1.70;;;23.60;56.90;;;;;;5029117;28;20207;-47
2021/08/04 00:59:14;;;;;;;1.80;1.70;;;23.70;56.70;;;;;;5027500;28;20231;-46
2021/08/04 01:02:27;;;;;;;1.83;1.70;;;23.70;56.60;;;;;;5028831;28;20216;-47
2021/08/04 01:05:09;;;;;;;3.47;1.50;;;23.70;56.10;;;;;;5022991;28;20614;-46
2021/08/04 01:08:02;;;;;;;1.83;1.73;;;23.70;56.40;;;;;;5029720;28;20451;-46
2021/08/04 01:10:42;;;;;;;3.37;1.57;;;23.80;56.20;;;;;;5029193;28;20951;-47
2021/08/04 01:13:15;;;;;;;2.20;1.90;;;23.80;56.20;;;;;;5029957;28;20562;-47
2021/08/04 01:15:50;;;;;;;3.37;1.83;;;23.80;55.70;;;;;;5031492;28;20448;-47
2021/08/04 01:18:23;;;;;;;1.87;1.77;;;23.80;55.80;;;;;;5031749;28;20566;-47
2021/08/04 01:20:49;;;;;;;2.03;1.93;;;23.80;55.90;;;;;;5031246;28;20440;-47
2021/08/04 01:23:18;;;;;;;3.17;1.60;;;23.80;55.60;;;;;;5028104;28;20590;-46
2021/08/04 01:25:50;;;;;;;1.97;1.70;;;23.80;55.60;;;;;;5027945;28;20460;-47
2021/08/04 01:28:23;;;;;;;1.80;1.70;;;23.80;55.70;;;;;;5026482;28;20485;-48
2021/08/04 01:30:54;;;;;;;1.53;1.40;;;23.80;55.60;;;;;;5027085;28;20440;-50
2021/08/04 01:33:21;;;;;;;1.90;1.80;;;23.70;54.50;;;;;;5024357;28;20443;-46
2021/08/04 01:35:47;;;;;;;1.67;1.57;;;23.70;54.60;;;;;;5030297;28;20451;-47
2021/08/04 01:38:16;;;;;;;2.67;1.90;;;23.70;55.40;;;;;;5028751;28;20810;-47
2021/08/04 01:40:43;;;;;;;2.00;1.90;;;23.70;55.40;;;;;;5022822;28;20620;-45
2021/08/04 01:43:11;;;;;;;2.97;1.60;;;23.70;54.80;;;;;;5025161;28;20487;-49
2021/08/04 01:45:38;;;;;;;1.93;1.83;;;23.60;55.30;;;;;;5028923;28;20459;-46
2021/08/04 01:48:05;;;;;;;1.90;1.80;;;23.60;54.90;;;;;;5031737;28;20430;-48
2021/08/04 01:50:31;;;;;;;2.47;1.87;;;23.50;55.40;;;;;;5023023;28;20478;-49
2021/08/04 01:52:58;;;;;;;1.93;1.83;;;23.50;55.60;;;;;;5024136;28;20440;-46
2021/08/04 01:55:23;;;;;;;2.07;1.87;;;23.50;55.80;;;;;;5029478;28;20519;-47
2021/08/04 01:57:49;;;;;;;1.80;1.70;;;23.50;56.00;;;;;;5028304;28;20570;-48
2021/08/04 02:00:14;;;;;;;2.10;1.90;;;23.50;56.00;;;;;;5026148;28;20456;-47
2021/08/04 02:02:40;;;;;;;3.67;1.77;;;23.50;56.20;;;;;;5029719;28;20228;-46
2021/08/04 02:05:06;;;;;;;4.90;2.03;;;23.50;55.60;;;;;;5026059;28;20194;-47
2021/08/04 02:07:49;;;;;;;1.70;1.60;;;23.50;55.70;;;;;;5027599;28;20199;-46
2021/08/04 02:10:23;;;;;;;2.23;1.93;;;23.50;56.10;;;;;;5028750;28;20440;-46
2021/08/04 02:12:58;;;;;;;2.33;2.20;;;23.60;56.30;;;;;;5029177;28;20442;-51
2021/08/04 02:15:28;;;;;;;1.90;1.60;;;23.60;56.20;;;;;;5028145;28;20435;-48
2021/08/04 02:17:58;;;;;;;2.10;1.90;;;23.60;56.30;;;;;;5030241;28;20467;-46
2021/08/04 02:20:29;;;;;;;2.50;1.87;;;23.60;56.20;;;;;;5027222;28;20436;-46
2021/08/04 02:23:07;;;;;;;1.70;1.60;;;23.60;56.20;;;;;;5028904;28;20581;-46
2021/08/04 02:25:36;;;;;;;1.67;1.57;;;23.70;56.10;;;;;;5029173;28;20522;-47
2021/08/04 02:28:04;;;;;;;2.13;1.70;;;23.70;55.90;;;;;;5025993;28;20444;-46
2021/08/04 02:30:31;;;;;;;1.73;1.60;;;23.70;55.80;;;;;;5028418;28;20439;-46
2021/08/04 02:32:57;;;;;;;1.87;1.40;;;23.70;55.80;;;;;;5030337;28;20481;-51
2021/08/04 02:35:23;;;;;;;2.20;2.00;;;23.80;55.80;;;;;;5029382;28;20428;-47
2021/08/04 02:37:49;;;;;;;1.87;1.70;;;23.80;55.60;;;;;;5027799;28;20928;-47
2021/08/04 02:40:15;;;;;;;2.07;1.97;;;23.80;55.60;;;;;;5029092;28;20478;-48
2021/08/04 02:42:44;;;;;;;2.00;1.80;;;23.70;55.10;;;;;;5028460;28;20254;-47
2021/08/04 02:45:10;;;;;;;2.33;2.17;;;23.70;54.70;;;;;;5028550;28;20478;-47
2021/08/04 02:47:36;;;;;;;1.60;1.43;;;23.50;55.00;;;;;;5027001;28;20444;-46
2021/08/04 02:50:05;;;;;;;1.70;1.60;;;23.30;55.20;;;;;;5028827;28;20935;-47
2021/08/04 02:52:31;;;;;;;2.20;1.83;;;23.10;55.60;;;;;;5025708;28;20519;-46
2021/08/04 02:54:57;;;;;;;2.10;1.90;;;23.10;55.60;;;;;;5024554;28;20535;-47
2021/08/04 02:57:23;;;;;;;2.00;1.80;;;23.10;56.00;;;;;;5028988;28;20523;-47
2021/08/04 02:59:48;;;;;;;1.77;1.67;;;22.90;53.80;;;;;;5027049;28;20277;-48
2021/08/04 03:02:14;;;;;;;1.90;1.80;;;22.80;55.10;;;;;;5026833;28;20273;-46
2021/08/04 03:04:39;;;;;;;2.67;2.30;;;22.90;55.60;;;;;;5031046;28;20200;-45
2021/08/04 03:07:05;;;;;;;2.20;2.00;;;23.00;56.20;;;;;;5029312;28;20246;-45
2021/08/04 03:09:31;;;;;;;2.67;2.10;;;23.10;56.70;;;;;;5027261;28;20657;-46
2021/08/04 03:11:56;;;;;;;3.47;1.47;;;23.20;56.60;;;;;;5029342;28;20185;-46
2021/08/04 03:14:22;;;;;;;1.70;1.60;;;23.30;56.60;;;;;;5035121;28;20200;-46
2021/08/04 03:16:48;;;;;;;2.73;1.83;;;23.30;56.50;;;;;;5029285;28;20174;-46
2021/08/04 03:19:14;;;;;;;1.73;1.63;;;23.40;56.40;;;;;;5030189;28;20248;-46
2021/08/04 03:21:40;;;;;;;3.00;2.10;;;23.50;56.40;;;;;;5032805;28;20524;-45
2021/08/04 03:24:06;;;;;;;1.80;1.70;;;23.50;56.10;;;;;;5031943;28;20979;-45
2021/08/04 03:26:32;;;;;;;2.83;2.20;;;23.60;56.10;;;;;;5031266;28;20586;-46
2021/08/04 03:28:58;;;;;;;4.00;1.83;;;23.60;55.90;;;;;;5026501;28;20438;-46
2021/08/04 03:31:23;;;;;;;1.80;1.70;;;23.60;55.70;;;;;;5028892;28;20436;-46
2021/08/04 03:33:49;;;;;;;2.37;2.17;;;23.70;55.80;;;;;;5029395;28;20205;-47
2021/08/04 03:36:15;;;;;;;5.00;2.10;;;23.70;55.70;;;;;;5029336;28;20324;-47
2021/08/04 03:38:40;;;;;;;1.70;1.60;;;23.70;55.30;;;;;;5030484;28;20247;-46
2021/08/04 03:41:06;;;;;;;5.00;1.93;;;23.70;54.80;;;;;;5031198;28;20981;-47
2021/08/04 03:43:32;;;;;;;2.30;2.20;;;23.60;54.70;;;;;;5032357;28;20236;-46
2021/08/04 03:45:57;;;;;;;2.33;2.00;;;23.60;55.10;;;;;;5028497;28;20440;-46
2021/08/04 03:48:23;;;;;;;2.13;1.93;;;23.70;55.40;;;;;;5030753;28;20270;-46
2021/08/04 03:50:49;;;;;;;2.53;1.73;;;23.70;55.50;;;;;;5030780;28;20224;-48
2021/08/04 03:53:14;;;;;;;2.13;1.93;;;23.70;55.30;;;;;;5031732;28;20201;-46
2021/08/04 03:55:40;;;;;;;1.83;1.73;;;23.60;55.30;;;;;;5026811;28;20557;-47
2021/08/04 03:58:05;;;;;;;2.10;1.90;;;23.70;55.60;;;;;;5023629;28;20197;-47
2021/08/04 04:00:31;;;;;;;1.97;1.83;;;23.70;55.10;;;;;;5030376;28;20205;-47
2021/08/04 04:02:57;;;;;;;4.87;2.07;;;23.60;55.20;;;;;;5029827;28;20247;-48
2021/08/04 04:05:22;;;;;;;1.90;1.80;;;23.60;55.60;;;;;;5030063;28;20204;-46
2021/08/04 04:07:48;;;;;;;1.60;1.50;;;23.60;55.60;;;;;;5031912;28;20609;-48
2021/08/04 04:10:13;;;;;;;2.20;2.00;;;23.60;55.50;;;;;;5029710;28;20719;-48
2021/08/04 04:12:39;;;;;;;1.97;1.87;;;23.60;55.40;;;;;;5031064;28;20194;-46
2021/08/04 04:15:05;;;;;;;2.67;2.00;;;23.70;55.60;;;;;;5026931;28;20311;-47
2021/08/04 04:17:31;;;;;;;1.90;1.80;;;23.70;55.50;;;;;;5030924;28;20240;-46
2021/08/04 04:19:57;;;;;;;2.03;1.80;;;23.70;55.40;;;;;;5034583;28;20439;-46
2021/08/04 04:22:22;;;;;;;2.10;1.90;;;23.70;55.00;;;;;;5029720;28;20691;-48
2021/08/04 04:24:48;;;;;;;1.70;1.60;;;23.70;54.60;;;;;;5030417;28;20193;-47
2021/08/04 04:27:14;;;;;;;2.07;1.80;;;23.60;54.70;;;;;;5026950;28;20193;-47
2021/08/04 04:29:40;;;;;;;2.30;2.10;;;23.70;55.30;;;;;;5028944;28;20704;-48
2021/08/04 04:32:07;;;;;;;2.57;2.30;;;23.60;55.30;;;;;;5031082;28;20235;-46
2021/08/04 04:34:32;;;;;;;2.50;2.30;;;23.50;55.00;;;;;;5031766;28;20447;-46
2021/08/04 04:36:58;;;;;;;2.37;2.17;;;23.50;55.60;;;;;;5025675;28;20509;-46
2021/08/04 04:39:23;;;;;;;2.00;1.60;;;23.50;55.60;;;;;;5029626;28;20193;-46
2021/08/04 04:41:49;;;;;;;2.60;2.23;;;23.60;55.80;;;;;;5031562;28;20204;-47
2021/08/04 04:44:14;;;;;;;2.67;2.30;;;23.60;55.30;;;;;;5029658;28;20225;-47
2021/08/04 04:46:40;;;;;;;3.00;2.40;;;23.50;55.00;;;;;;5027609;28;20197;-48
2021/08/04 04:49:06;;;;;;;3.40;2.27;;;23.40;55.00;;;;;;5029398;28;20265;-45
2021/08/04 04:51:31;;;;;;;5.57;1.90;;;23.30;55.30;;;;;;5030162;28;20200;-46
2021/08/04 04:53:57;;;;;;;3.30;2.53;;;23.30;55.50;;;;;;5029667;28;20194;-46
2021/08/04 04:56:22;;;;;;;3.17;2.10;;;23.10;57.50;;;;;;5032059;28;20649;-46
2021/08/04 04:58:48;;;;;;;2.83;1.87;;;23.20;56.90;;;;;;5028649;28;20198;-47
2021/08/04 05:01:13;;;;;;;2.60;2.00;;;23.30;56.20;;;;;;5025320;28;20941;-46
2021/08/04 05:03:39;;;;;;;6.27;2.30;;;23.30;55.60;;;;;;5023001;28;20221;-50
2021/08/04 05:06:05;;;;;;;3.30;2.40;;;23.40;55.40;;;;;;5025800;28;20299;-46
2021/08/04 05:08:30;;;;;;;3.17;2.43;;;23.40;55.00;;;;;;5028362;28;20192;-46
2021/08/04 05:10:56;;;;;;;4.70;2.20;;;23.40;54.60;;;;;;5025258;28;20649;-47
2021/08/04 05:13:21;;;;;;;3.80;2.60;;;23.50;54.50;;;;;;5031189;28;20190;-47
2021/08/04 05:15:47;;;;;;;2.70;2.50;;;23.50;54.40;;;;;;5027967;28;20704;-50
2021/08/04 05:18:12;;;;;;;4.63;2.27;;;23.50;54.40;;;;;;5030819;28;20239;-47
2021/08/04 05:20:38;;;;;;;3.37;2.50;;;23.50;54.40;;;;;;5025366;28;20687;-49
2021/08/04 05:23:03;;;;;;;2.67;2.47;;;23.50;54.30;;;;;;5025823;28;20355;-50
2021/08/04 05:25:29;;;;;;;2.43;2.23;;;23.50;54.30;;;;;;5026656;28;20288;-47
2021/08/04 05:27:55;;;;;;;2.70;2.40;;;23.50;54.30;;;;;;5029099;28;20193;-46
2021/08/04 05:30:20;;;;;;;4.30;2.47;;;23.60;54.20;;;;;;5028053;28;20303;-46
2021/08/04 05:32:46;;;;;;;2.40;2.20;;;23.60;54.30;;;;;;5029585;28;20197;-46
2021/08/04 05:35:13;;;;;;;3.30;2.30;;;23.60;54.20;;;;;;5024992;28;20189;-51
2021/08/04 05:37:38;;;;;;;3.00;2.70;;;23.60;54.20;;;;;;5023515;28;20274;-47
2021/08/04 05:40:05;;;;;;;2.90;2.60;;;23.50;54.50;;;;;;5025867;28;20480;-46
2021/08/04 05:42:31;;;;;;;3.03;2.27;;;23.50;55.30;;;;;;5028069;28;21899;-51
2021/08/04 05:44:57;;;;;;;4.57;2.60;;;23.50;54.60;;;;;;5024739;28;20455;-48
2021/08/04 05:47:23;;;;;;;5.30;2.40;;;23.60;54.50;;;;;;5026604;28;20208;-48
2021/08/04 05:49:48;;;;;;;2.37;2.17;;;23.50;54.40;;;;;;5028354;28;20272;-49
2021/08/04 05:52:14;;;;;;;3.90;2.97;;;23.50;54.50;;;;;;5030072;28;20281;-46
2021/08/04 05:54:40;;;;;;;3.70;2.90;;;23.40;54.00;;;;;;5030921;28;20555;-47
2021/08/04 05:57:06;;;;;;;3.60;2.70;;;23.30;54.70;;;;;;5030527;28;20507;-47
2021/08/04 05:59:31;;;;;;;2.33;2.13;;;23.20;55.10;;;;;;5030287;28;20209;-46
2021/08/04 06:01:57;;;;;;;3.07;2.50;;;23.10;55.30;;;;;;5029465;28;20637;-47
2021/08/04 06:04:22;;;;;;;2.50;1.93;;;23.10;55.80;;;;;;5030333;28;20662;-51
2021/08/04 06:06:48;;;;;;;3.17;2.60;;;23.10;55.90;;;;;;5030684;28;20185;-48
2021/08/04 06:09:14;;;;;;;2.40;2.20;;;23.20;56.00;;;;;;5032880;28;20192;-46
2021/08/04 06:11:40;;;;;;;2.30;2.10;;;23.20;55.70;;;;;;5032175;28;20193;-47
2021/08/04 06:14:06;;;;;;;4.17;2.13;;;23.20;55.70;;;;;;5030083;28;20482;-46
2021/08/04 06:16:32;;;;;;;3.20;2.50;;;23.30;55.80;;;;;;5031311;28;20198;-46
2021/08/04 06:18:57;;;;;;;2.70;2.50;;;23.30;55.60;;;;;;5039470;28;20827;-46
2021/08/04 06:21:26;;;;;;;2.70;2.50;;;23.10;55.70;;;;;;5036515;28;20189;-47
2021/08/04 06:23:52;;;;;;;2.10;2.00;;;23.00;55.60;;;;;;5031572;28;20278;-46
2021/08/04 06:26:17;;;;;;;3.33;1.93;;;22.80;55.70;;;;;;5031009;28;20420;-47
2021/08/04 06:28:44;;;;;;;2.87;2.47;;;22.70;56.10;;;;;;5031613;28;20435;-48
2021/08/04 06:31:10;;;;;;;2.90;2.13;;;22.70;56.30;;;;;;5031089;28;20277;-46
2021/08/04 06:33:36;;;;;;;3.30;2.30;;;22.90;56.20;;;;;;5031415;28;20435;-46
2021/08/04 06:36:02;;;;;;;2.07;1.97;;;22.90;55.40;;;;;;5030830;28;20420;-46
2021/08/04 06:38:27;;;;;;;2.87;2.17;;;23.00;55.00;;;;;;5031404;28;20197;-46
2021/08/04 06:40:53;;;;;;;2.33;2.13;;;23.20;54.20;;;;;;5029517;28;20189;-46
2021/08/04 06:43:19;;;;;;;3.63;2.33;;;23.30;53.50;;;;;;5031239;28;20228;-50
2021/08/04 06:45:45;;;;;;;2.43;1.80;;;23.30;53.30;;;;;;5032947;28;20314;-48
2021/08/04 06:48:10;;;;;;;2.77;2.50;;;23.30;53.10;;;;;;5034684;28;20803;-46
2021/08/04 06:50:37;;;;;;;4.00;2.00;;;23.30;52.80;;;;;;5035455;28;20190;-46
2021/08/04 06:53:03;;;;;;;3.70;3.23;;;23.20;53.40;;;;;;5034938;28;20645;-48
2021/08/04 06:55:28;;;;;;;2.27;2.07;;;23.30;52.80;;;;;;5035158;28;20485;-46
2021/08/04 06:57:54;;;;;;;2.80;2.27;;;23.40;53.00;;;;;;5034795;28;20214;-46
2021/08/04 07:00:20;;;;;;;2.20;2.00;;;23.40;52.10;;;;;;5034758;28;20193;-47
2021/08/04 07:02:48;;;;;;;2.30;2.10;;;23.40;52.50;;;;;;5034647;28;20249;-47
2021/08/04 07:05:13;;;;;;;2.37;1.60;;;23.30;53.00;;;;;;5035069;28;20255;-46
2021/08/04 07:07:41;;;;;;;3.53;2.37;;;23.20;52.30;;;;;;5033063;28;20424;-48
2021/08/04 07:10:07;;;;;;;2.20;2.00;;;23.30;52.50;;;;;;5034606;28;20655;-46
2021/08/04 07:12:32;;;;;;;2.03;1.80;;;22.90;52.40;;;;;;5034578;28;20423;-46
2021/08/04 07:14:58;;;;;;;2.23;2.10;;;23.00;53.40;;;;;;5034868;28;20424;-46
2021/08/04 07:17:23;;;;;;;4.40;2.00;;;23.10;53.50;;;;;;5034233;28;20243;-46
2021/08/04 07:19:49;;;;;;;2.80;2.03;;;23.10;52.90;;;;;;5047648;28;20189;-49
2021/08/04 07:22:15;;;;;;;2.10;2.00;;;23.30;53.50;;;;;;5034370;28;20255;-46
2021/08/04 07:24:40;;;;;;;3.00;2.13;;;23.40;53.80;;;;;;5034353;28;20229;-46
2021/08/04 07:27:06;;;;;;;2.10;1.90;;;23.60;53.80;;;;;;5034252;28;20614;-47
2021/08/04 07:29:32;;;;;;;2.73;2.53;;;23.60;52.90;;;;;;5034212;28;20224;-46
2021/08/04 07:31:58;;;;;;;4.07;1.57;;;23.70;52.30;;;;;;5034178;28;20427;-46
2021/08/04 07:34:24;;;;;;;3.00;2.30;;;23.70;51.50;;;;;;5033047;28;20197;-47
2021/08/04 07:36:52;;;;;;;2.13;1.93;;;23.90;51.60;;;;;;5034101;28;20579;-47
2021/08/04 07:39:17;;;;;;;2.57;2.10;;;24.00;51.20;;;;;;5034420;28;20419;-46
2021/08/04 07:41:44;;;;;;;2.80;2.43;;;24.10;51.70;;;;;;5033779;28;20779;-46
2021/08/04 07:44:09;;;;;;;2.23;2.03;;;24.20;50.30;;;;;;5034371;28;20483;-48
2021/08/04 07:46:35;;;;;;;2.40;1.77;;;24.30;50.60;;;;;;5034014;28;20493;-47
2021/08/04 07:49:01;;;;;;;2.47;2.27;;;24.50;50.00;;;;;;5031407;28;20638;-46
2021/08/04 07:51:26;;;;;;;2.00;1.90;;;24.60;49.80;;;;;;5033634;28;20198;-46
2021/08/04 07:53:52;;;;;;;2.23;2.13;;;24.70;49.40;;;;;;5034280;28;20201;-46
2021/08/04 07:56:20;;;;;;;2.47;2.27;;;24.80;48.90;;;;;;5033830;28;20189;-47
2021/08/04 07:58:47;;;;;;;1.73;1.63;;;24.90;49.20;;;;;;5033161;28;20197;-47
2021/08/04 08:01:13;;;;;;;2.70;2.30;;;25.00;48.60;;;;;;5031690;28;20439;-47
2021/08/04 08:03:39;;;;;;;1.80;1.70;;;25.20;49.40;;;;;;5034069;28;20479;-46
2021/08/04 08:06:04;;;;;;;3.63;2.10;;;25.40;49.20;;;;;;5033710;28;20198;-47
2021/08/04 08:08:30;;;;;;;2.70;1.93;;;25.60;48.90;;;;;;5033648;28;20201;-46
2021/08/04 08:10:56;;;;;;;2.40;2.20;;;25.70;47.60;;;;;;5033515;28;20197;-48
2021/08/04 08:13:22;;;;;;;2.23;2.03;;;25.90;47.00;;;;;;5033816;28;20197;-47
2021/08/04 08:15:48;;;;;;;2.33;1.90;;;26.00;47.50;;;;;;5034007;28;20511;-48
2021/08/04 08:18:14;;;;;;;3.30;2.43;;;26.10;47.50;;;;;;5035288;28;20233;-47
2021/08/04 08:20:40;;;;;;;2.50;2.30;;;26.30;47.20;;;;;;5045184;28;20485;-47
2021/08/04 08:23:07;;;;;;;1.97;1.87;;;26.40;46.90;;;;;;5032769;28;20239;-46
2021/08/04 08:25:33;;;;;;;3.07;2.67;;;26.50;46.30;;;;;;5033741;28;20478;-47
2021/08/04 08:27:59;;;;;;;2.43;2.03;;;26.50;46.20;;;;;;5030982;28;20801;-47
2021/08/04 08:30:26;;;;;;;3.73;2.37;;;26.60;46.30;;;;;;5033665;28;20424;-49
2021/08/04 08:32:53;;;;;;;3.30;1.83;;;26.60;45.80;;;;;;5032867;28;20193;-47
2021/08/04 08:35:19;;;;;;;2.33;2.03;;;26.70;45.00;;;;;;5033699;28;20432;-48
2021/08/04 08:37:46;;;;;;;2.00;1.90;;;26.70;44.90;;;;;;5033053;28;20436;-47
2021/08/04 08:40:14;;;;;;;2.37;2.03;;;26.70;44.80;;;;;;5032925;28;20432;-47
2021/08/04 08:42:40;;;;;;;2.27;2.07;;;26.70;45.20;;;;;;5032542;28;20424;-47
2021/08/04 08:45:07;;;;;;;2.37;2.20;;;26.70;44.70;;;;;;5033128;28;20519;-47
2021/08/04 08:47:33;;;;;;;2.80;2.60;;;26.50;45.20;;;;;;5032825;28;20447;-47
2021/08/04 08:50:00;;;;;;;2.83;2.40;;;26.60;45.70;;;;;;5030525;28;20436;-47
2021/08/04 08:52:26;;;;;;;2.03;1.90;;;26.60;45.30;;;;;;5031797;28;20621;-48
2021/08/04 08:54:51;;;;;;;3.00;2.23;;;26.60;44.60;;;;;;5032240;28;20546;-46
2021/08/04 08:57:17;;;;;;;2.80;2.50;;;26.50;44.10;;;;;;5032487;28;20284;-46
2021/08/04 08:59:43;;;;;;;2.63;2.43;;;26.20;44.50;;;;;;5032571;28;20554;-47
2021/08/04 09:02:08;;;;;;;2.37;2.10;;;26.10;44.00;;;;;;5032200;28;20638;-47
2021/08/04 09:04:34;;;;;;;2.43;2.23;;;26.00;45.20;;;;;;5032677;28;20225;-47
2021/08/04 09:07:01;;;;;;;4.03;2.07;;;26.00;46.50;;;;;;5032100;28;20193;-46
2021/08/04 09:09:31;;;;;;;2.97;2.30;;;26.10;46.10;;;;;;5031505;28;20603;-47
2021/08/04 09:12:04;;;;;;;2.47;2.27;;;26.20;44.50;;;;;;5032500;28;20439;-48
2021/08/04 09:14:34;;;;;;;2.47;2.27;;;26.30;44.00;;;;;;5032580;28;20451;-46
2021/08/04 09:17:06;;;;;;;1.97;1.83;;;26.50;44.80;;;;;;5031799;28;20431;-48
2021/08/04 09:19:40;;;;;;;2.07;1.87;;;26.50;44.30;;;;;;5043107;28;20524;-47
2021/08/04 09:22:16;;;;;;;5.20;2.10;;;26.60;44.60;;;;;;5019575;28;20426;-47
2021/08/04 09:25:01;;;;;;;2.03;1.87;;;26.70;44.20;;;;;;5032376;28;20531;-47
2021/08/04 09:27:43;;;;;;;2.07;1.97;;;26.70;44.00;;;;;;5031960;28;20428;-46
2021/08/04 09:30:11;;;;;;;3.87;1.87;;;26.80;44.10;;;;;;5032082;28;20550;-48
2021/08/04 09:32:37;;;;;;;2.37;2.20;;;26.90;44.70;;;;;;5031802;28;20435;-47
2021/08/04 09:35:11;;;;;;;2.50;2.30;;;27.00;44.30;;;;;;5032333;28;20435;-46
2021/08/04 09:37:37;;;;;;;3.47;2.00;;;27.10;44.40;;;;;;5031825;28;20911;-47
2021/08/04 09:40:04;;;;;;;2.43;2.20;;;27.10;44.00;;;;;;5031942;28;20427;-48
2021/08/04 09:43:02;;;;;;;2.53;2.00;;;27.20;44.00;;;;;;5031510;28;20193;-46
2021/08/04 09:45:43;;;;;;;4.10;2.30;;;27.30;44.10;;;;;;5040268;28;20440;-50
2021/08/04 09:48:11;;;;;;;2.90;2.07;;;27.20;42.70;;;;;;5031266;28;20439;-48
2021/08/04 09:50:44;;;;;;;2.30;1.90;;;26.80;41.90;;;;;;5029171;28;20443;-48
2021/08/04 09:53:16;;;;;;;1.90;1.80;;;26.50;43.50;;;;;;5031455;28;20505;-46
2021/08/04 09:55:41;;;;;;;2.10;1.83;;;26.50;44.90;;;;;;5032063;28;20416;-47
2021/08/04 09:58:23;;;;;;;2.50;1.90;;;26.60;44.70;;;;;;5030953;28;20521;-47
2021/08/04 10:00:52;;;;;;;2.10;1.90;;;26.30;43.50;;;;;;5031076;28;20649;-51
2021/08/04 10:03:17;;;;;;;2.77;2.00;;;26.30;43.20;;;;;;5031989;28;20512;-47
2021/08/04 10:05:44;;;;;;;1.90;1.80;;;26.50;43.20;;;;;;5032059;28;20940;-48
2021/08/04 10:08:13;;;;;;;3.13;2.17;;;26.60;42.60;;;;;;5030991;28;20200;-52
2021/08/04 10:10:44;;;;;;;2.67;2.47;;;26.50;41.90;;;;;;5032033;28;20481;-47
2021/08/04 10:13:14;;;;;;;1.90;1.80;;;26.30;43.20;;;;;;5061376;28;20450;-47
2021/08/04 10:15:42;;;;;;;2.13;2.00;;;26.20;43.70;;;;;;5031890;28;20442;-47
2021/08/04 10:18:11;;;;;;;2.03;1.73;;;25.90;43.70;;;;;;5031864;28;20521;-51
2021/08/04 10:20:38;;;;;;;2.23;2.03;;;25.80;44.40;;;;;;5043337;28;20431;-49
2021/08/04 10:23:04;;;;;;;2.63;2.17;;;25.60;44.90;;;;;;5030748;28;20490;-47
2021/08/04 10:25:32;;;;;;;2.70;2.03;;;25.70;45.20;;;;;;5031886;28;20459;-47
2021/08/04 10:28:00;;;;;;;2.40;2.20;;;25.90;44.10;;;;;;5030620;28;20514;-49
2021/08/04 10:30:26;;;;;;;2.43;2.23;;;26.00;43.70;;;;;;5031657;28;20528;-46
2021/08/04 10:32:51;;;;;;;2.20;2.00;;;25.50;43.90;;;;;;5030836;28;20432;-47
2021/08/04 10:35:17;;;;;;;2.10;1.90;;;25.60;44.10;;;;;;5031916;28;20288;-47
2021/08/04 10:37:44;;;;;;;2.57;2.00;;;25.70;43.60;;;;;;5031369;28;20189;-50
2021/08/04 10:40:10;;;;;;;2.07;1.97;;;25.60;43.80;;;;;;5030069;28;20264;-50
2021/08/04 10:42:41;;;;;;;2.57;2.20;;;25.80;43.80;;;;;;5030643;28;20427;-46
2021/08/04 10:45:28;;;;;;;2.23;2.13;;;25.60;44.50;;;;;;5031615;28;20467;-48
2021/08/04 10:48:18;;;;;;;8.20;2.13;;;25.70;44.70;;;;;;5030369;28;20444;-46
2021/08/04 10:51:12;;;;;;;2.80;2.03;;;26.00;43.80;;;;;;5028252;28;20424;-46
2021/08/04 10:54:00;;;;;;;2.00;1.80;;;26.50;43.70;;;;;;5031223;28;20883;-48
2021/08/04 10:56:31;;;;;;;2.27;2.07;;;26.60;43.80;;;;;;5030946;28;20443;-46
2021/08/04 10:59:09;;;;;;;2.60;1.80;;;26.40;42.80;;;;;;5030869;28;20942;-47
2021/08/04 11:01:43;;;;;;;2.00;1.80;;;26.20;44.50;;;;;;5030609;28;20923;-47
2021/08/04 11:04:13;;;;;;;2.30;2.03;;;26.50;45.50;;;;;;5031047;28;20828;-47
2021/08/04 11:07:06;;;;;;;2.30;1.83;;;26.70;44.70;;;;;;5029280;28;20435;-47
2021/08/04 11:09:37;;;;;;;2.27;1.80;;;27.10;44.40;;;;;;5031066;28;20791;-47
2021/08/04 11:12:05;;;;;;;2.40;2.13;;;27.30;43.00;;;;;;5030696;28;20447;-47
2021/08/04 11:14:44;;;;;;;2.27;2.00;;;27.60;43.10;;;;;;5031056;28;20791;-47
2021/08/04 11:17:12;;;;;;;2.03;1.93;;;27.80;43.10;;;;;;5030553;28;20439;-50
2021/08/04 11:20:02;;;;;;;5.40;2.10;;;27.90;41.70;;;;;;5044174;28;20755;-46
2021/08/04 11:22:37;;;;;;;2.57;2.07;;;28.10;42.30;;;;;;5030707;28;20440;-47
2021/08/04 11:25:02;;;;;;;2.40;2.20;;;28.10;42.70;;;;;;5030979;28;20466;-48
2021/08/04 11:27:30;;;;;;;3.40;3.10;;;28.20;41.40;;;;;;5030489;28;20432;-47
2021/08/04 11:29:57;;;;;;;2.23;2.00;;;28.20;40.80;;;;;;5030647;28;20280;-48
2021/08/04 11:32:26;;;;;;;2.20;2.00;;;28.30;41.70;;;;;;5061637;28;20432;-48
2021/08/04 11:34:52;;;;;;;2.10;2.00;;;28.40;40.70;;;;;;5034623;28;20416;-47
2021/08/04 11:37:19;;;;;;;2.27;2.07;;;28.00;41.40;;;;;;5033836;28;20430;-52
2021/08/04 11:39:55;;;;;;;2.73;2.10;;;27.90;41.90;;;;;;5034787;28;20780;-48
2021/08/04 11:42:21;;;;;;;2.33;1.97;;;28.30;42.00;;;;;;5033923;28;20442;-46
2021/08/04 11:44:47;;;;;;;1.90;1.80;;;28.00;41.30;;;;;;5033215;28;20856;-48
2021/08/04 11:47:13;;;;;;;2.83;1.97;;;27.80;40.60;;;;;;5034181;28;20424;-48
2021/08/04 11:49:46;;;;;;;2.43;1.90;;;27.80;41.30;;;;;;5033934;28;20604;-48
2021/08/04 11:52:20;;;;;;;2.10;1.80;;;27.60;40.90;;;;;;5033616;28;20468;-47
2021/08/04 11:55:10;;;;;;;1.77;1.67;;;27.90;41.60;;;;;;5034401;28;20855;-47
2021/08/04 11:57:43;;;;;;;3.27;2.10;;;27.90;41.00;;;;;;5032923;28;20431;-50
2021/08/04 12:00:29;;;;;;;1.73;1.63;;;28.20;41.00;;;;;;5033859;28;20436;-46
2021/08/04 12:02:55;;;;;;;2.00;1.90;;;28.50;40.50;;;;;;5033295;28;20521;-47
2021/08/04 12:05:21;;;;;;;2.60;2.40;;;28.70;40.50;;;;;;5033761;28;20927;-49
2021/08/04 12:07:47;;;;;;;2.10;2.00;;;28.70;41.50;;;;;;5033174;28;20186;-49
2021/08/04 12:10:18;;;;;;;2.13;2.03;;;28.80;41.20;;;;;;5034153;28;20193;-50
2021/08/04 12:12:52;;;;;;;2.03;1.93;;;29.00;41.30;;;;;;5033202;28;20247;-48
2021/08/04 12:15:25;;;;;;;3.00;1.90;;;29.10;40.10;;;;;;5033891;28;20440;-47
2021/08/04 12:18:17;;;;;;;2.03;1.90;;;29.10;40.00;;;;;;5032667;28;20474;-47
2021/08/04 12:20:42;;;;;;;2.30;2.10;;;29.20;40.90;;;;;;5023683;28;21004;-48
2021/08/04 12:23:10;;;;;;;1.70;1.60;;;29.20;40.70;;;;;;5032910;28;20487;-47
2021/08/04 12:25:38;;;;;;;2.27;2.17;;;29.30;39.40;;;;;;5032139;28;20221;-47
2021/08/04 12:28:05;;;;;;;1.87;1.77;;;29.30;39.10;;;;;;5032686;28;20429;-47
2021/08/04 12:30:40;;;;;;;1.87;1.77;;;29.30;40.20;;;;;;5033590;28;20437;-47
2021/08/04 12:33:19;;;;;;;2.40;1.63;;;29.30;38.60;;;;;;5032620;28;20942;-47
2021/08/04 12:36:02;;;;;;;1.90;1.80;;;29.00;38.70;;;;;;5033670;28;20435;-47
2021/08/04 12:38:30;;;;;;;1.80;1.70;;;28.80;39.10;;;;;;5032974;28;20872;-48
2021/08/04 12:40:57;;;;;;;2.53;1.70;;;28.80;39.70;;;;;;5032706;28;20920;-47
2021/08/04 12:43:28;;;;;;;5.63;1.70;;;28.90;41.20;;;;;;5032902;28;20507;-47
2021/08/04 12:45:55;;;;;;;1.80;1.70;;;29.00;41.30;;;;;;5032656;28;20428;-48
2021/08/04 12:48:42;;;;;;;1.60;1.50;;;29.10;39.50;;;;;;5030251;28;20455;-47
2021/08/04 12:51:16;;;;;;;1.83;1.60;;;29.30;39.40;;;;;;5029920;28;20858;-47
2021/08/04 12:53:43;;;;;;;1.50;1.40;;;29.20;38.90;;;;;;5033245;28;20467;-48